Time;durP1;ratioP1;P1;durP2;ratioP2;P2;SDS_P1;SDS_P2;PMS_P1;PMS_P2;Temp;Humidity;BMP_temperature;BMP_pressure;BME280_temperature;BME280_humidity;BME280_pressure;Samples;Min_cycle;Max_cycle;Signal;HPM_P1;HPM_P2
2023/02/05 00:01:57;;;;;;;3.40;1.80;;;;;;;2.80;76.77;100013.31;5091978;28;20042;-37
2023/02/05 00:04:22;;;;;;;3.58;1.48;;;;;;;2.98;78.25;99999.06;5073503;28;20055;-36
2023/02/05 00:06:48;;;;;;;2.83;1.70;;;;;;;2.63;80.51;99998.53;5073339;28;20488;-36
2023/02/05 00:09:13;;;;;;;2.30;1.40;;;;;;;2.38;82.31;99993.31;5091067;28;20614;-36
2023/02/05 00:11:39;;;;;;;2.42;1.50;;;;;;;2.40;83.38;100011.59;5091541;28;20032;-36
2023/02/05 00:14:05;;;;;;;4.25;2.00;;;;;;;2.57;81.65;100021.09;5091977;28;20031;-35
2023/02/05 00:16:33;;;;;;;4.20;2.13;;;;;;;2.57;80.68;100036.06;5091388;28;20028;-36
2023/02/05 00:18:59;;;;;;;4.45;1.83;;;;;;;2.30;81.32;100019.66;5091459;28;20031;-35
2023/02/05 00:21:25;;;;;;;6.07;2.72;;;;;;;2.58;80.12;100037.72;5090988;28;20028;-37
2023/02/05 00:23:51;;;;;;;2.60;1.27;;;;;;;2.69;77.29;100040.00;5091149;28;20028;-36
2023/02/05 00:26:17;;;;;;;4.70;1.88;;;;;;;2.40;77.07;100044.00;5091420;28;20081;-35
2023/02/05 00:28:43;;;;;;;2.33;1.55;;;;;;;2.29;75.51;100022.44;5091200;28;20107;-36
2023/02/05 00:31:15;;;;;;;2.80;1.25;;;;;;;2.04;75.58;100017.19;5090312;28;20035;-36
2023/02/05 00:33:40;;;;;;;2.38;1.13;;;;;;;2.21;74.85;100065.41;5091009;28;20031;-36
2023/02/05 00:36:06;;;;;;;1.45;1.20;;;;;;;2.19;74.26;100070.81;5091020;28;20036;-36
2023/02/05 00:38:32;;;;;;;3.33;1.38;;;;;;;2.26;73.95;100078.88;5090855;28;20173;-35
2023/02/05 00:40:58;;;;;;;3.33;1.85;;;;;;;2.18;73.27;100078.84;5091177;28;20107;-36
2023/02/05 00:43:24;;;;;;;3.22;1.63;;;;;;;1.91;73.28;100057.16;5090760;28;20146;-34
2023/02/05 00:45:49;;;;;;;2.42;1.38;;;;;;;2.08;73.00;100070.31;5090873;28;20047;-35
2023/02/05 00:48:14;;;;;;;3.00;1.25;;;;;;;1.98;73.78;100076.56;5091083;28;20153;-36
2023/02/05 00:50:40;;;;;;;3.42;1.80;;;;;;;1.94;74.29;100048.09;5090564;28;20099;-36
2023/02/05 00:53:06;;;;;;;2.78;1.20;;;;;;;2.11;73.68;100070.81;5091133;28;20464;-34
2023/02/05 00:55:31;;;;;;;2.05;1.15;;;;;;;1.87;73.46;100053.19;5090406;28;20715;-36
2023/02/05 00:57:57;;;;;;;3.53;1.85;;;;;;;2.08;73.13;100078.19;5090755;28;20020;-36
2023/02/05 01:00:23;;;;;;;1.98;0.98;;;;;;;2.03;72.85;100088.41;5090811;28;20028;-36
2023/02/05 01:02:48;;;;;;;4.53;1.60;;;;;;;2.40;71.82;100074.75;5090408;28;20571;-36
2023/02/05 01:05:14;;;;;;;2.67;1.42;;;;;;;2.66;70.17;100079.84;5090189;28;20046;-36
2023/02/05 01:07:39;;;;;;;2.90;1.33;;;;;;;2.52;69.65;100070.78;5090268;28;20137;-36
2023/02/05 01:10:05;;;;;;;2.70;1.33;;;;;;;2.06;70.56;100065.19;5090353;28;20142;-36
2023/02/05 01:12:34;;;;;;;2.60;1.55;;;;;;;2.24;69.88;100090.53;5090156;28;20498;-36
2023/02/05 01:15:00;;;;;;;2.83;1.50;;;;;;;2.10;70.12;100049.91;5090220;28;20028;-36
2023/02/05 01:17:25;;;;;;;2.88;1.58;;;;;;;2.18;70.22;100076.22;5089982;28;20040;-36
2023/02/05 01:19:51;;;;;;;2.03;1.30;;;;;;;2.16;70.95;100080.84;5090073;28;20028;-36
2023/02/05 01:22:17;;;;;;;2.83;1.40;;;;;;;2.08;70.00;100065.03;5072084;28;20024;-36
2023/02/05 01:24:42;;;;;;;2.22;1.42;;;;;;;2.15;69.92;100095.00;5090822;28;20376;-35
2023/02/05 01:27:07;;;;;;;2.08;1.33;;;;;;;1.85;70.63;100063.06;5090011;28;20028;-34
2023/02/05 01:29:33;;;;;;;2.33;1.40;;;;;;;2.04;69.91;100093.47;5089872;28;20032;-36
2023/02/05 01:31:58;;;;;;;1.90;1.08;;;;;;;1.77;69.14;100079.63;5090013;28;20614;-35
2023/02/05 01:34:24;;;;;;;2.63;1.60;;;;;;;1.70;70.28;100096.22;5089631;28;20023;-36
2023/02/05 01:36:49;;;;;;;2.88;1.83;;;;;;;1.68;70.44;100095.56;5090098;28;20032;-35
2023/02/05 01:39:15;;;;;;;8.88;2.92;;;;;;;1.82;70.56;100084.44;5089517;28;20482;-35
2023/02/05 01:41:43;;;;;;;13.10;5.15;;;;;;;1.75;72.21;100071.06;5090101;28;20047;-36
2023/02/05 01:44:23;;;;;;;2.35;1.23;;;;;;;1.46;76.30;100095.16;5089688;28;20081;-34
2023/02/05 01:46:50;;;;;;;2.85;1.40;;;;;;;1.33;77.07;100071.97;5089737;28;20032;-35
2023/02/05 01:49:34;;;;;;;1.90;1.13;;;;;;;1.28;76.91;100097.88;5089233;28;20063;-35
2023/02/05 01:52:05;;;;;;;2.53;1.17;;;;;;;1.36;76.70;100123.38;5089892;28;20027;-35
2023/02/05 01:54:34;;;;;;;2.85;1.42;;;;;;;1.17;76.22;100114.75;5089332;28;20458;-35
2023/02/05 01:57:03;;;;;;;2.33;1.42;;;;;;;1.26;77.21;100133.16;5089427;28;20113;-35
2023/02/05 01:59:33;;;;;;;3.53;1.90;;;;;;;1.45;75.74;100137.34;5089035;28;20035;-36
2023/02/05 02:02:00;;;;;;;3.50;1.67;;;;;;;1.57;75.06;100128.22;5089948;28;20028;-36
2023/02/05 02:04:51;;;;;;;2.42;1.42;;;;;;;1.10;79.08;100133.91;5089546;28;20059;-36
2023/02/05 02:07:20;;;;;;;3.47;1.33;;;;;;;0.73;81.35;100106.94;5089519;28;20055;-36
2023/02/05 02:09:47;;;;;;;5.72;1.40;;;;;;;0.71;83.20;100114.13;5089317;28;20395;-35
2023/02/05 02:12:17;;;;;;;3.33;1.90;;;;;;;0.50;87.60;100124.16;5089540;28;20027;-35
2023/02/05 02:14:46;;;;;;;3.42;2.13;;;;;;;0.32;90.18;100119.75;5071129;28;20115;-36
2023/02/05 02:17:15;;;;;;;3.28;1.63;;;;;;;0.44;92.24;100132.63;5089418;28;20024;-36
2023/02/05 02:19:48;;;;;;;2.03;1.63;;;;;;;0.26;96.49;100138.69;5089298;28;20507;-36
2023/02/05 02:22:20;;;;;;;5.05;2.47;;;;;;;0.10;100.00;100130.69;5071123;28;20032;-36
2023/02/05 02:25:13;;;;;;;2.80;1.60;;;;;;;0.04;100.00;100141.75;5089363;28;20111;-36
2023/02/05 02:27:44;;;;;;;4.32;2.08;;;;;;;-0.18;100.00;100138.59;5089373;28;20035;-35
2023/02/05 02:30:23;;;;;;;4.50;2.10;;;;;;;-0.19;100.00;100139.56;5089176;28;20036;-34
2023/02/05 02:33:11;;;;;;;4.68;2.60;;;;;;;-0.21;100.00;100154.63;5089116;28;20035;-36
2023/02/05 02:35:39;;;;;;;;;;;;;;;-0.29;100.00;100157.13;5089498;28;20028;-36
2023/02/05 02:38:14;;;;;;;4.57;2.58;;;;;;;-0.25;100.00;100133.09;5089264;28;20284;-36
2023/02/05 02:40:45;;;;;;;5.22;3.70;;;;;;;-0.51;100.00;100127.75;5089034;28;20059;-35
2023/02/05 02:43:30;;;;;;;3.33;2.13;;;;;;;-0.41;100.00;100132.91;5088653;28;20039;-35
2023/02/05 02:46:26;;;;;;;5.03;2.90;;;;;;;-0.26;100.00;100147.19;5089298;28;20028;-35
2023/02/05 02:48:59;;;;;;;;;;;;;;;-0.21;100.00;100154.63;5084991;28;20051;-35
2023/02/05 02:51:27;;;;;;;4.15;2.40;;;;;;;-0.22;100.00;100155.59;5088877;28;19912;-36
2023/02/05 02:53:56;;;;;;;3.10;1.60;;;;;;;-0.32;100.00;100167.94;5089107;28;20111;-36
2023/02/05 02:56:23;;;;;;;4.40;2.47;;;;;;;-0.32;100.00;100150.41;5092884;28;20131;-36
2023/02/05 02:59:02;;;;;;;5.90;2.55;;;;;;;-0.17;100.00;100173.50;5092946;28;20024;-35
2023/02/05 03:01:33;;;;;;;5.22;3.15;;;;;;;-0.15;100.00;100168.94;5092810;28;20028;-36
2023/02/05 03:04:07;;;;;;;5.18;2.47;;;;;;;-0.31;100.00;100161.69;5092901;28;20480;-36
2023/02/05 03:06:34;;;;;;;4.88;2.97;;;;;;;-0.23;100.00;100188.00;5092951;28;20042;-36
2023/02/05 03:09:23;;;;;;;4.78;2.80;;;;;;;-0.56;100.00;100166.66;5092838;28;20054;-35
2023/02/05 03:11:48;;;;;;;5.80;2.78;;;;;;;-0.62;100.00;100168.03;5092593;28;20020;-35
2023/02/05 03:14:17;;;;;;;4.28;2.22;;;;;;;-0.78;100.00;100153.91;5092488;28;20506;-36
2023/02/05 03:16:42;;;;;;;5.85;3.67;;;;;;;-0.63;100.00;100178.69;5092279;28;20407;-38
2023/02/05 03:19:08;;;;;;;4.65;2.63;;;;;;;-0.47;100.00;100202.47;5092771;28;20035;-36
2023/02/05 03:21:41;;;;;;;6.22;3.55;;;;;;;-0.71;100.00;100179.38;5092368;28;20032;-36
2023/02/05 03:24:08;;;;;;;6.05;3.03;;;;;;;-0.67;100.00;100183.38;5092738;28;20077;-35
2023/02/05 03:26:34;;;;;;;8.57;3.72;;;;;;;-0.53;100.00;100200.44;5092448;28;20031;-37
2023/02/05 03:29:03;;;;;;;6.82;3.42;;;;;;;-0.31;100.00;100193.16;5092145;28;20028;-36
2023/02/05 03:31:44;;;;;;;6.03;3.30;;;;;;;-0.58;100.00;100205.25;5092243;28;20042;-36
2023/02/05 03:34:31;;;;;;;7.97;3.95;;;;;;;-0.50;100.00;100202.75;5092014;28;20439;-36
2023/02/05 03:37:08;;;;;;;6.43;3.50;;;;;;;-0.77;100.00;100185.19;5092085;28;20032;-36
2023/02/05 03:39:34;;;;;;;6.65;3.80;;;;;;;-0.41;100.00;100207.13;5091704;28;20074;-36
2023/02/05 03:42:17;;;;;;;4.50;2.55;;;;;;;-0.51;100.00;100190.63;5091869;28;20420;-36
2023/02/05 03:45:16;;;;;;;4.32;2.42;;;;;;;-0.52;100.00;100215.16;5092126;28;20047;-36
2023/02/05 03:47:56;;;;;;;6.15;3.08;;;;;;;-0.56;100.00;100224.28;5091804;28;20088;-37
2023/02/05 03:50:50;;;;;;;8.50;4.00;;;;;;;-0.51;100.00;100206.34;5092121;28;20035;-35
2023/02/05 03:53:30;;;;;;;5.70;4.13;;;;;;;-0.56;100.00;100216.41;5091765;28;20037;-36
2023/02/05 03:56:22;;;;;;;7.43;4.32;;;;;;;-0.67;100.00;100195.66;5091748;28;20027;-37
2023/02/05 03:58:50;;;;;;;8.25;3.70;;;;;;;-0.65;100.00;100217.28;5091801;28;20028;-37
2023/02/05 04:01:17;;;;;;;8.70;5.40;;;;;;;-0.66;100.00;100213.81;5091963;28;20031;-36
2023/02/05 04:03:45;;;;;;;8.95;4.25;;;;;;;-0.69;100.00;100213.31;5091943;28;20074;-36
2023/02/05 04:06:11;;;;;;;6.28;3.97;;;;;;;-0.56;100.00;100223.47;5090334;28;20499;-36
2023/02/05 04:08:37;;;;;;;6.13;3.33;;;;;;;-0.69;100.00;100208.88;5091393;28;20419;-36
2023/02/05 04:11:02;;;;;;;6.55;3.75;;;;;;;-0.55;100.00;100223.31;5073365;28;20032;-36
2023/02/05 04:13:28;;;;;;;7.18;4.18;;;;;;;-0.63;100.00;100228.44;5091744;28;20036;-35
2023/02/05 04:15:53;;;;;;;8.25;4.93;;;;;;;-0.63;100.00;100220.59;5091488;28;20172;-37
2023/02/05 04:18:21;;;;;;;6.60;4.18;;;;;;;-0.88;100.00;100201.91;5091698;28;20399;-36
2023/02/05 04:20:46;;;;;;;12.50;4.70;;;;;;;-0.67;100.00;100221.84;5091416;28;20032;-36
2023/02/05 04:23:12;;;;;;;8.45;4.22;;;;;;;-0.65;100.00;100227.75;5091252;28;20028;-37
2023/02/05 04:25:38;;;;;;;5.80;3.88;;;;;;;-0.84;100.00;100239.94;5091237;28;20115;-36
2023/02/05 04:28:04;;;;;;;6.80;3.75;;;;;;;-0.82;100.00;100256.34;5073286;28;20518;-36
2023/02/05 04:30:31;;;;;;;6.82;3.47;;;;;;;-0.87;100.00;100237.59;5091090;28;20032;-36
2023/02/05 04:32:57;;;;;;;9.18;4.93;;;;;;;-0.74;100.00;100279.19;5091465;28;20055;-36
2023/02/05 04:35:24;;;;;;;8.50;4.20;;;;;;;-0.86;100.00;100257.59;5072705;28;20027;-37
2023/02/05 04:37:50;;;;;;;7.32;4.22;;;;;;;-0.76;100.00;100269.81;5072262;28;20036;-37
2023/02/05 04:40:16;;;;;;;8.55;4.45;;;;;;;-0.67;100.00;100289.94;5090822;28;20138;-37
2023/02/05 04:42:41;;;;;;;6.47;3.40;;;;;;;-0.66;100.00;100271.44;5090721;28;20235;-36
2023/02/05 04:45:07;;;;;;;7.80;4.43;;;;;;;-0.63;100.00;100272.97;5091049;28;20032;-36
2023/02/05 04:47:33;;;;;;;8.02;4.07;;;;;;;-0.53;100.00;100272.94;5090634;28;20559;-35
2023/02/05 04:50:01;;;;;;;8.77;4.65;;;;;;;-0.29;100.00;100306.53;5090619;28;20502;-35
2023/02/05 04:52:26;;;;;;;8.38;4.47;;;;;;;-0.31;100.00;100314.50;5072689;28;20446;-37
2023/02/05 04:54:52;;;;;;;7.57;4.25;;;;;;;-0.35;100.00;100283.50;5090809;28;20035;-37
2023/02/05 04:57:19;;;;;;;7.70;4.32;;;;;;;-0.16;100.00;100299.19;5090412;28;20028;-36
2023/02/05 04:59:45;;;;;;;7.63;4.30;;;;;;;-0.14;100.00;100317.38;5090384;28;20032;-37
2023/02/05 05:02:10;;;;;;;9.98;4.03;;;;;;;-0.21;100.00;100327.59;5090494;28;20127;-37
2023/02/05 05:04:36;;;;;;;8.25;5.13;;;;;;;-0.13;100.00;100316.41;5090401;28;20032;-36
2023/02/05 05:07:01;;;;;;;7.57;4.55;;;;;;;-0.04;100.00;100308.53;5090293;28;20031;-36
2023/02/05 05:09:27;;;;;;;8.20;4.43;;;;;;;0.13;100.00;100329.69;5072244;28;20036;-37
2023/02/05 05:11:55;;;;;;;7.68;4.43;;;;;;;0.11;100.00;100339.50;5090370;28;20071;-36
2023/02/05 05:14:21;;;;;;;10.55;5.00;;;;;;;0.11;100.00;100342.13;5090528;28;20111;-36
2023/02/05 05:16:48;;;;;;;9.50;4.80;;;;;;;-0.02;100.00;100324.94;5090192;28;20111;-37
2023/02/05 05:19:14;;;;;;;6.82;3.75;;;;;;;0.02;100.00;100322.84;5090000;28;20032;-37
2023/02/05 05:21:39;;;;;;;7.90;4.50;;;;;;;0.09;100.00;100344.06;5089976;28;20024;-37
2023/02/05 05:24:05;;;;;;;8.45;4.68;;;;;;;0.23;100.00;100350.66;5090260;28;20030;-36
2023/02/05 05:26:30;;;;;;;11.88;5.28;;;;;;;0.27;100.00;100355.47;5090174;28;20040;-37
2023/02/05 05:28:56;;;;;;;12.73;6.07;;;;;;;0.22;100.00;100360.28;5090190;28;20476;-37
2023/02/05 05:31:26;;;;;;;11.23;5.88;;;;;;;0.03;100.00;100363.00;5089598;28;20020;-37
2023/02/05 05:33:52;;;;;;;9.82;5.40;;;;;;;-0.15;100.00;100358.50;5090184;28;20411;-36
2023/02/05 05:36:17;;;;;;;10.23;4.78;;;;;;;0.07;100.00;100369.63;5089549;28;20039;-37
2023/02/05 05:38:43;;;;;;;11.13;5.28;;;;;;;-0.13;100.00;100359.19;5089773;28;20035;-37
2023/02/05 05:44:02;;;;;;;13.00;6.20;;;;;;;0.00;100.00;100385.09;5090204;28;20035;-36
2023/02/05 05:46:27;;;;;;;9.10;5.25;;;;;;;-0.04;100.00;100381.94;5089718;28;20028;-36
2023/02/05 05:48:55;;;;;;;13.85;7.07;;;;;;;-0.12;100.00;100384.44;5071678;28;20126;-36
2023/02/05 05:51:22;;;;;;;12.10;6.63;;;;;;;0.05;100.00;100403.03;5089851;28;20519;-35
2023/02/05 05:53:48;;;;;;;11.02;5.88;;;;;;;0.01;100.00;100405.09;5071579;28;20036;-36
2023/02/05 05:56:14;;;;;;;12.07;6.80;;;;;;;-0.15;100.00;100376.03;5089810;28;20519;-36
2023/02/05 05:58:39;;;;;;;16.42;8.48;;;;;;;0.17;100.00;100388.75;5089571;28;20122;-36
2023/02/05 06:01:06;;;;;;;12.88;7.50;;;;;;;0.11;100.00;100378.84;5089537;28;20110;-36
2023/02/05 06:03:32;;;;;;;9.57;5.47;;;;;;;0.32;100.00;100408.28;5089418;28;20093;-36
2023/02/05 06:06:05;;;;;;;12.57;6.47;;;;;;;0.34;100.00;100406.34;5089607;28;20028;-35
2023/02/05 06:08:31;;;;;;;8.07;4.07;;;;;;;0.25;100.00;100409.84;5089434;28;20492;-36
2023/02/05 06:11:02;;;;;;;6.80;3.35;;;;;;;0.69;92.56;100412.69;5089750;28;20024;-36
2023/02/05 06:13:27;;;;;;;7.70;3.40;;;;;;;0.69;84.90;100404.81;5089054;28;20063;-37
2023/02/05 06:15:53;;;;;;;4.93;2.05;;;;;;;0.92;77.16;100436.78;5089249;28;20110;-36
2023/02/05 06:18:19;;;;;;;6.63;2.85;;;;;;;0.87;78.01;100427.69;5089275;28;20470;-36
2023/02/05 06:20:44;;;;;;;4.60;2.50;;;;;;;1.06;76.29;100451.19;5089324;28;20084;-37
2023/02/05 06:23:10;;;;;;;4.68;3.00;;;;;;;1.20;75.34;100440.16;5089415;28;20106;-37
2023/02/05 06:25:35;;;;;;;8.13;4.25;;;;;;;1.33;72.50;100465.28;5089049;28;20531;-37
2023/02/05 06:28:03;;;;;;;11.32;5.88;;;;;;;1.10;74.77;100460.41;5089311;28;20057;-37
2023/02/05 06:30:29;;;;;;;11.73;5.78;;;;;;;1.31;74.58;100457.53;5091984;28;20023;-36
2023/02/05 06:32:54;;;;;;;11.45;7.15;;;;;;;1.52;75.37;100470.38;5093274;28;20036;-37
2023/02/05 06:35:20;;;;;;;7.65;4.68;;;;;;;1.31;75.73;100470.69;5092804;28;20039;-36
2023/02/05 06:37:45;;;;;;;5.07;3.08;;;;;;;1.35;76.03;100479.09;5093414;28;20064;-37
2023/02/05 06:40:11;;;;;;;6.75;2.95;;;;;;;1.23;75.43;100475.00;5092872;28;20056;-37
2023/02/05 06:42:37;;;;;;;6.75;3.55;;;;;;;1.17;77.14;100471.19;5092862;28;20028;-37
2023/02/05 06:45:03;;;;;;;8.00;3.25;;;;;;;1.42;75.67;100464.38;5093099;28;20031;-37
2023/02/05 06:47:29;;;;;;;7.03;3.70;;;;;;;1.36;76.29;100483.38;5092846;28;20063;-37
2023/02/05 06:49:54;;;;;;;6.95;3.53;;;;;;;1.60;75.00;100477.53;5093216;28;20060;-36
2023/02/05 06:52:20;;;;;;;6.78;3.45;;;;;;;1.56;74.11;100487.50;5093371;28;20061;-35
2023/02/05 06:54:45;;;;;;;7.63;4.10;;;;;;;1.62;77.08;100495.78;5092858;28;20032;-37
2023/02/05 06:57:11;;;;;;;12.50;5.45;;;;;;;1.78;72.81;100485.41;5092562;28;20533;-37
2023/02/05 06:59:36;;;;;;;9.38;4.30;;;;;;;1.78;73.09;100512.53;5092599;28;20035;-37
2023/02/05 07:02:02;;;;;;;7.93;4.20;;;;;;;1.70;76.05;100511.63;5092929;28;20028;-37
2023/02/05 07:04:29;;;;;;;7.55;3.92;;;;;;;1.74;74.98;100489.31;5092821;28;20051;-37
2023/02/05 07:06:58;;;;;;;9.25;4.10;;;;;;;1.85;73.35;100520.63;5092753;28;20435;-37
2023/02/05 07:09:24;;;;;;;9.00;4.22;;;;;;;1.95;71.63;100534.53;5092381;28;20032;-37
2023/02/05 07:11:49;;;;;;;10.52;5.78;;;;;;;2.18;71.32;100523.53;5092442;28;20036;-37
2023/02/05 07:14:15;;;;;;;7.35;3.63;;;;;;;2.07;70.81;100523.78;5092253;28;20028;-36
2023/02/05 07:16:41;;;;;;;6.20;3.42;;;;;;;1.88;72.02;100533.50;5092325;28;20103;-36
2023/02/05 07:19:06;;;;;;;123.78;24.50;;;;;;;2.14;70.87;100528.25;5092507;28;20476;-35
2023/02/05 07:21:31;;;;;;;23.58;12.82;;;;;;;1.99;68.16;100551.66;5092252;28;20024;-36
2023/02/05 07:23:57;;;;;;;306.73;125.00;;;;;;;1.61;68.78;100531.75;5092331;28;20032;-37
2023/02/05 07:26:22;;;;;;;191.18;82.38;;;;;;;1.57;69.01;100536.50;5074144;28;20103;-37
2023/02/05 07:28:48;;;;;;;207.68;102.07;;;;;;;1.87;68.98;100554.69;5092108;28;20028;-37
2023/02/05 07:31:19;;;;;;;145.00;66.75;;;;;;;1.67;68.32;100567.13;5092144;28;20036;-37
2023/02/05 07:33:46;;;;;;;254.07;127.40;;;;;;;1.62;70.57;100564.97;5092237;28;20028;-36
2023/02/05 07:36:17;;;;;;;50.60;27.58;;;;;;;1.13;69.09;100551.25;5092086;28;20046;-36
2023/02/05 07:38:44;;;;;;;63.22;44.65;;;;;;;1.26;69.39;100543.03;5091654;28;20115;-37
2023/02/05 07:41:12;;;;;;;89.10;76.97;;;;;;;1.30;70.81;100565.41;5091342;28;20020;-37
2023/02/05 07:43:38;;;;;;;58.03;52.20;;;;;;;1.27;69.53;100565.69;5091803;28;20032;-36
2023/02/05 07:46:06;;;;;;;29.50;26.35;;;;;;;1.21;68.56;100551.34;5091992;28;20508;-36
2023/02/05 07:48:32;;;;;;;;;;;;;;;1.51;67.91;100573.03;5092316;28;20519;-36
2023/02/05 07:50:57;;;;;;;20.52;18.38;;;;;;;1.35;68.16;100578.94;5092036;28;19972;-36
2023/02/05 07:53:26;;;;;;;7.75;3.95;;;;;;;1.33;68.56;100573.03;5091337;28;20046;-37
2023/02/05 07:55:51;;;;;;;25.08;14.13;;;;;;;1.24;68.52;100563.38;5073113;28;20034;-37
2023/02/05 07:58:16;;;;;;;10.18;5.18;;;;;;;1.38;67.29;100573.38;5091547;28;20024;-37
2023/02/05 08:00:42;;;;;;;23.20;11.43;;;;;;;1.58;67.52;100574.13;5091473;28;20024;-37
2023/02/05 08:03:08;;;;;;;6.47;4.70;;;;;;;1.44;65.82;100571.97;5091942;28;20058;-38
2023/02/05 08:05:33;;;;;;;26.48;12.02;;;;;;;1.70;67.02;100583.44;5090992;28;20514;-37
2023/02/05 08:07:58;;;;;;;41.90;18.83;;;;;;;1.82;66.36;100597.22;5091361;28;20392;-37
2023/02/05 08:10:24;;;;;;;75.85;33.80;;;;;;;1.94;67.22;100601.28;5091243;28;20032;-37
2023/02/05 08:12:50;;;;;;;76.57;26.00;;;;;;;1.86;63.41;100597.72;5073260;28;20446;-38
2023/02/05 08:15:15;;;;;;;144.95;44.65;;;;;;;1.94;66.25;100614.44;5091111;28;20124;-37
2023/02/05 08:17:40;;;;;;;55.83;23.67;;;;;;;2.10;64.91;100610.28;5091364;28;20153;-38
2023/02/05 08:20:07;;;;;;;131.55;42.08;;;;;;;2.11;63.72;100618.03;5072938;28;20024;-37
2023/02/05 08:22:37;;;;;;;107.65;46.90;;;;;;;2.45;65.19;100609.44;5091219;28;20024;-38
2023/02/05 08:25:05;;;;;;;93.20;36.53;;;;;;;2.34;63.15;100622.84;5090919;28;20032;-37
2023/02/05 08:27:35;;;;;;;36.85;16.33;;;;;;;2.54;64.32;100620.88;5090952;28;20043;-38
2023/02/05 08:30:01;;;;;;;33.53;15.25;;;;;;;2.38;61.96;100653.97;5091089;28;20069;-38
2023/02/05 08:32:26;;;;;;;32.20;15.65;;;;;;;2.47;63.48;100651.41;5091281;28;20032;-38
2023/02/05 08:34:51;;;;;;;33.80;16.15;;;;;;;2.49;61.68;100628.38;5090943;28;20039;-38
2023/02/05 08:37:18;;;;;;;19.17;10.77;;;;;;;2.77;59.02;100647.53;5072100;28;20483;-38
2023/02/05 08:39:45;;;;;;;22.85;13.57;;;;;;;2.52;61.68;100642.09;5090799;28;20550;-39
2023/02/05 08:42:10;;;;;;;13.80;8.80;;;;;;;2.68;63.34;100649.28;5056287;28;20093;-39
2023/02/05 08:44:38;;;;;;;15.95;10.52;;;;;;;2.78;59.74;100668.47;5072616;28;20107;-38
2023/02/05 08:47:03;;;;;;;31.50;15.52;;;;;;;2.64;61.24;100658.47;5090552;28;20028;-39
2023/02/05 08:49:29;;;;;;;29.20;14.73;;;;;;;2.71;61.67;100656.88;5090303;28;20454;-39
2023/02/05 08:51:54;;;;;;;45.30;22.30;;;;;;;2.68;59.33;100653.75;5089632;28;20027;-38
2023/02/05 08:54:20;;;;;;;23.27;10.40;;;;;;;2.63;59.98;100648.09;5090665;28;20040;-39
2023/02/05 08:56:49;;;;;;;37.33;12.02;;;;;;;2.50;60.73;100651.13;5090435;28;20110;-38
2023/02/05 08:59:14;;;;;;;20.95;15.32;;;;;;;2.83;59.78;100665.34;5090497;28;20032;-37
2023/02/05 09:01:41;;;;;;;22.88;13.45;;;;;;;2.80;61.18;100644.63;5090461;28;20028;-38
2023/02/05 09:04:11;;;;;;;15.32;7.55;;;;;;;2.96;59.22;100663.16;5071967;28;20084;-39
2023/02/05 09:06:36;;;;;;;13.02;8.27;;;;;;;2.95;61.61;100650.13;5089984;28;20024;-38
2023/02/05 09:09:02;;;;;;;14.57;10.45;;;;;;;2.72;59.78;100678.78;5090581;28;20039;-39
2023/02/05 09:11:29;;;;;;;7.50;4.88;;;;;;;2.72;61.24;100673.53;5072010;28;20024;-38
2023/02/05 09:13:55;;;;;;;42.67;24.20;;;;;;;3.07;60.88;100672.63;5090100;28;20028;-39
2023/02/05 09:16:21;;;;;;;30.98;19.55;;;;;;;3.15;58.75;100679.75;5090076;28;20539;-39
2023/02/05 09:18:46;;;;;;;50.85;16.45;;;;;;;3.06;59.96;100670.94;5071697;28;20039;-39
2023/02/05 09:21:12;;;;;;;50.58;20.30;;;;;;;3.02;59.27;100680.13;5089735;28;20028;-38
2023/02/05 09:23:37;;;;;;;9.55;6.60;;;;;;;3.03;57.40;100676.53;5089982;28;20039;-39
2023/02/05 09:26:04;;;;;;;8.07;4.80;;;;;;;2.92;57.53;100664.44;5090010;28;20032;-39
2023/02/05 09:28:29;;;;;;;45.40;28.45;;;;;;;2.89;59.90;100661.28;5090244;28;20478;-38
2023/02/05 09:30:55;;;;;;;34.38;16.88;;;;;;;3.08;58.21;100683.97;5089429;28;20024;-39
2023/02/05 09:33:20;;;;;;;61.00;31.55;;;;;;;3.08;56.88;100679.53;5088316;28;20092;-39
2023/02/05 09:35:45;;;;;;;47.80;13.05;;;;;;;2.94;57.03;100674.81;5088011;28;20020;-39
2023/02/05 09:38:16;;;;;;;53.13;21.60;;;;;;;3.14;55.98;100662.28;5088506;28;20123;-39
2023/02/05 09:40:54;;;;;;;27.50;12.25;;;;;;;3.00;57.00;100685.59;5088319;28;20055;-39
2023/02/05 09:43:34;;;;;;;11.37;5.27;;;;;;;3.02;55.85;100664.34;5086915;28;20027;-38
2023/02/05 09:46:07;;;;;;;23.15;9.50;;;;;;;3.13;56.28;100668.53;5068838;28;20020;-39
2023/02/05 09:48:50;;;;;;;30.48;13.30;;;;;;;3.45;56.07;100667.88;5089315;28;20035;-38
2023/02/05 09:51:33;;;;;;;19.45;10.20;;;;;;;3.13;53.98;100671.19;5089154;28;20020;-37
2023/02/05 09:54:09;;;;;;;15.57;8.25;;;;;;;3.09;55.35;100683.81;5089360;28;20051;-38
2023/02/05 09:56:35;;;;;;;29.48;17.15;;;;;;;3.36;54.87;100682.81;5089253;28;20111;-38
2023/02/05 09:59:04;;;;;;;55.42;32.88;;;;;;;3.40;53.97;100663.06;5088607;28;20808;-38
2023/02/05 10:01:44;;;;;;;47.10;28.80;;;;;;;3.33;55.17;100671.75;5088741;28;20034;-38
2023/02/05 10:04:10;;;;;;;17.30;13.25;;;;;;;3.43;53.90;100683.03;5088487;28;20032;-38
2023/02/05 10:07:03;;;;;;;22.48;16.10;;;;;;;3.60;53.37;100690.03;5088155;28;20065;-39
2023/02/05 10:09:44;;;;;;;21.90;13.63;;;;;;;3.76;52.59;100689.28;5088105;28;20036;-39
2023/02/05 10:12:48;;;;;;;17.60;12.40;;;;;;;3.95;50.54;100677.63;5087779;28;20032;-38
2023/02/05 10:15:19;;;;;;;12.80;9.80;;;;;;;3.92;53.65;100688.50;5087090;28;20471;-38
2023/02/05 10:18:20;;;;;;;16.73;14.23;;;;;;;3.82;51.60;100693.06;5086264;28;20100;-38
2023/02/05 10:20:48;;;;;;;21.63;16.30;;;;;;;3.87;51.63;100690.81;5086459;28;20055;-38
2023/02/05 10:23:15;;;;;;;11.00;7.70;;;;;;;3.80;50.24;100685.34;5088433;28;20032;-38
2023/02/05 10:25:58;;;;;;;16.13;14.07;;;;;;;4.06;49.22;100697.63;5089043;28;20032;-38
2023/02/05 10:29:03;;;;;;;12.07;9.52;;;;;;;3.96;51.57;100689.84;5088682;28;20157;-38
2023/02/05 10:32:03;;;;;;;10.20;6.65;;;;;;;4.20;49.66;100664.50;5070782;28;20028;-38
2023/02/05 10:34:47;;;;;;;8.60;5.68;;;;;;;4.37;47.39;100692.59;5089094;28;20024;-38
2023/02/05 10:37:28;;;;;;;7.50;4.28;;;;;;;4.67;50.90;100690.28;5088912;28;20479;-38
2023/02/05 10:39:56;;;;;;;17.60;10.45;;;;;;;5.32;46.26;100696.50;5089159;28;20048;-38
2023/02/05 10:42:27;;;;;;;12.73;9.57;;;;;;;4.87;45.36;100692.59;5088872;28;20718;-39
2023/02/05 10:45:13;;;;;;;13.60;10.20;;;;;;;5.38;46.05;100690.53;5089276;28;20107;-38
2023/02/05 10:47:44;;;;;;;19.65;13.85;;;;;;;5.68;44.32;100690.75;5088988;28;20480;-38
2023/02/05 10:50:27;;;;;;;5.60;3.13;;;;;;;5.14;42.68;100673.72;5088834;28;20055;-38
2023/02/05 10:52:53;;;;;;;11.88;6.22;;;;;;;5.47;43.05;100684.22;5070664;28;20399;-37
2023/02/05 10:55:19;;;;;;;16.65;9.13;;;;;;;5.82;43.58;100671.50;5087873;28;20464;-37
2023/02/05 10:57:44;;;;;;;10.18;5.97;;;;;;;5.19;40.68;100686.44;5088791;28;20024;-37
2023/02/05 11:00:21;;;;;;;15.15;6.70;;;;;;;5.86;42.54;100683.41;5088720;28;20024;-38
2023/02/05 11:02:50;;;;;;;5.82;2.80;;;;;;;5.11;40.33;100684.66;5088818;28;20020;-37
2023/02/05 11:05:37;;;;;;;36.67;23.65;;;;;;;4.74;41.62;100699.22;5088248;28;20057;-37
2023/02/05 11:08:03;;;;;;;8.50;4.40;;;;;;;4.73;40.74;100683.53;5088678;28;20032;-37
2023/02/05 11:10:32;;;;;;;24.83;20.67;;;;;;;5.11;42.47;100689.94;5088738;28;20028;-37
2023/02/05 11:13:14;;;;;;;11.70;9.95;;;;;;;5.38;42.73;100674.69;5088502;28;20111;-37
2023/02/05 11:16:02;;;;;;;8.90;4.03;;;;;;;5.84;39.63;100669.53;5089661;28;20068;-37
2023/02/05 11:18:47;;;;;;;;;;;;;;;6.40;38.87;100693.25;5092874;28;20028;-37
2023/02/05 11:21:13;;;;;;;5.47;3.60;;;;;;;6.02;38.02;100682.53;5077646;28;19946;-37
2023/02/05 11:23:52;;;;;;;4.78;2.65;;;;;;;5.79;37.72;100687.75;5092151;28;20485;-37
2023/02/05 11:26:23;;;;;;;4.18;2.83;;;;;;;5.50;37.47;100691.84;5092065;28;20020;-37
2023/02/05 11:28:49;;;;;;;7.90;6.22;;;;;;;5.51;36.94;100685.53;5073894;28;20024;-37
2023/02/05 11:31:19;;;;;;;4.18;1.98;;;;;;;6.31;36.37;100681.84;5091801;28;20713;-37
2023/02/05 11:33:45;;;;;;;3.67;2.40;;;;;;;5.74;37.03;100674.19;5091994;28;20016;-37
2023/02/05 11:36:22;;;;;;;5.97;2.85;;;;;;;5.71;37.73;100648.09;5092083;28;20115;-37
2023/02/05 11:38:52;;;;;;;2.10;1.13;;;;;;;5.68;38.23;100682.81;5091398;28;20454;-37